sensor_id;sensor_type;location;lat;lon;timestamp;P1;durP1;ratioP1;P2;durP2;ratioP2
9496;SDS011;4786;51.270;4.456;2022-08-14T00:00:19;3.92;;;2.70;;
9496;SDS011;4786;51.270;4.456;2022-08-14T00:02:46;4.45;;;2.80;;
9496;SDS011;4786;51.270;4.456;2022-08-14T00:05:14;4.80;;;2.70;;
9496;SDS011;4786;51.270;4.456;2022-08-14T00:07:43;3.50;;;2.92;;
9496;SDS011;4786;51.270;4.456;2022-08-14T00:10:10;5.25;;;3.25;;
9496;SDS011;4786;51.270;4.456;2022-08-14T00:12:40;3.58;;;2.70;;
9496;SDS011;4786;51.270;4.456;2022-08-14T00:15:15;3.80;;;2.85;;
9496;SDS011;4786;51.270;4.456;2022-08-14T00:17:44;2.92;;;2.58;;
9496;SDS011;4786;51.270;4.456;2022-08-14T00:20:11;3.97;;;2.83;;
9496;SDS011;4786;51.270;4.456;2022-08-14T00:22:38;3.45;;;3.10;;
9496;SDS011;4786;51.270;4.456;2022-08-14T00:25:05;4.43;;;2.97;;
9496;SDS011;4786;51.270;4.456;2022-08-14T00:27:33;3.00;;;2.70;;
9496;SDS011;4786;51.270;4.456;2022-08-14T00:29:59;3.10;;;2.80;;
9496;SDS011;4786;51.270;4.456;2022-08-14T00:32:24;4.00;;;2.88;;
9496;SDS011;4786;51.270;4.456;2022-08-14T00:34:51;2.80;;;2.60;;
9496;SDS011;4786;51.270;4.456;2022-08-14T00:37:16;3.30;;;2.70;;
9496;SDS011;4786;51.270;4.456;2022-08-14T00:39:42;4.78;;;2.60;;
9496;SDS011;4786;51.270;4.456;2022-08-14T00:42:08;3.58;;;2.97;;
9496;SDS011;4786;51.270;4.456;2022-08-14T00:44:34;4.40;;;2.92;;
9496;SDS011;4786;51.270;4.456;2022-08-14T00:47:00;4.85;;;2.85;;
9496;SDS011;4786;51.270;4.456;2022-08-14T00:49:30;3.20;;;2.90;;
9496;SDS011;4786;51.270;4.456;2022-08-14T00:51:56;3.25;;;2.95;;
9496;SDS011;4786;51.270;4.456;2022-08-14T00:54:23;3.67;;;2.90;;
9496;SDS011;4786;51.270;4.456;2022-08-14T00:56:51;5.28;;;3.00;;
9496;SDS011;4786;51.270;4.456;2022-08-14T00:59:17;3.30;;;2.88;;
9496;SDS011;4786;51.270;4.456;2022-08-14T01:01:43;3.15;;;2.88;;
9496;SDS011;4786;51.270;4.456;2022-08-14T01:04:10;3.42;;;2.85;;
9496;SDS011;4786;51.270;4.456;2022-08-14T01:06:37;3.13;;;2.90;;
9496;SDS011;4786;51.270;4.456;2022-08-14T01:09:03;4.45;;;3.05;;
9496;SDS011;4786;51.270;4.456;2022-08-14T01:11:30;3.50;;;3.20;;
9496;SDS011;4786;51.270;4.456;2022-08-14T01:13:56;3.05;;;2.75;;
9496;SDS011;4786;51.270;4.456;2022-08-14T01:16:24;3.75;;;3.10;;
9496;SDS011;4786;51.270;4.456;2022-08-14T01:18:51;5.82;;;3.38;;
9496;SDS011;4786;51.270;4.456;2022-08-14T01:21:36;3.67;;;3.30;;
9496;SDS011;4786;51.270;4.456;2022-08-14T01:24:04;4.22;;;3.22;;
9496;SDS011;4786;51.270;4.456;2022-08-14T01:26:34;3.63;;;3.08;;
9496;SDS011;4786;51.270;4.456;2022-08-14T01:29:01;3.97;;;3.30;;
9496;SDS011;4786;51.270;4.456;2022-08-14T01:31:30;3.53;;;3.10;;
9496;SDS011;4786;51.270;4.456;2022-08-14T01:33:59;3.53;;;2.85;;
9496;SDS011;4786;51.270;4.456;2022-08-14T01:36:28;3.58;;;3.20;;
9496;SDS011;4786;51.270;4.456;2022-08-14T01:39:03;3.77;;;3.20;;
9496;SDS011;4786;51.270;4.456;2022-08-14T01:41:34;6.03;;;3.65;;
9496;SDS011;4786;51.270;4.456;2022-08-14T01:44:03;3.50;;;3.20;;
9496;SDS011;4786;51.270;4.456;2022-08-14T01:46:35;4.43;;;2.97;;
9496;SDS011;4786;51.270;4.456;2022-08-14T01:49:09;3.60;;;3.20;;
9496;SDS011;4786;51.270;4.456;2022-08-14T01:51:39;3.60;;;3.30;;
9496;SDS011;4786;51.270;4.456;2022-08-14T01:54:08;5.88;;;3.78;;
9496;SDS011;4786;51.270;4.456;2022-08-14T01:56:39;5.78;;;3.45;;
9496;SDS011;4786;51.270;4.456;2022-08-14T01:59:09;3.67;;;3.38;;
9496;SDS011;4786;51.270;4.456;2022-08-14T02:01:57;4.63;;;3.95;;
9496;SDS011;4786;51.270;4.456;2022-08-14T02:04:29;4.53;;;3.65;;
9496;SDS011;4786;51.270;4.456;2022-08-14T02:06:56;6.07;;;3.50;;
9496;SDS011;4786;51.270;4.456;2022-08-14T02:09:23;3.70;;;3.40;;
9496;SDS011;4786;51.270;4.456;2022-08-14T02:11:50;4.43;;;3.57;;
9496;SDS011;4786;51.270;4.456;2022-08-14T02:14:17;4.20;;;3.50;;
9496;SDS011;4786;51.270;4.456;2022-08-14T02:16:45;7.80;;;3.60;;
9496;SDS011;4786;51.270;4.456;2022-08-14T02:19:17;3.80;;;3.50;;
9496;SDS011;4786;51.270;4.456;2022-08-14T02:21:45;6.67;;;3.50;;
9496;SDS011;4786;51.270;4.456;2022-08-14T02:24:15;3.70;;;3.40;;
9496;SDS011;4786;51.270;4.456;2022-08-14T02:26:43;7.73;;;3.73;;
9496;SDS011;4786;51.270;4.456;2022-08-14T02:29:12;3.87;;;3.57;;
9496;SDS011;4786;51.270;4.456;2022-08-14T02:31:41;3.50;;;3.30;;
9496;SDS011;4786;51.270;4.456;2022-08-14T02:34:10;4.33;;;3.47;;
9496;SDS011;4786;51.270;4.456;2022-08-14T02:36:45;4.43;;;3.97;;
9496;SDS011;4786;51.270;4.456;2022-08-14T02:39:13;3.90;;;3.50;;
9496;SDS011;4786;51.270;4.456;2022-08-14T02:41:40;4.97;;;3.50;;
9496;SDS011;4786;51.270;4.456;2022-08-14T02:44:07;5.23;;;3.50;;
9496;SDS011;4786;51.270;4.456;2022-08-14T02:46:34;5.10;;;3.33;;
9496;SDS011;4786;51.270;4.456;2022-08-14T02:49:02;4.30;;;3.90;;
9496;SDS011;4786;51.270;4.456;2022-08-14T02:51:29;3.57;;;3.20;;
9496;SDS011;4786;51.270;4.456;2022-08-14T02:53:55;4.57;;;3.50;;
9496;SDS011;4786;51.270;4.456;2022-08-14T02:56:22;3.97;;;3.63;;
9496;SDS011;4786;51.270;4.456;2022-08-14T02:58:51;4.10;;;3.77;;
9496;SDS011;4786;51.270;4.456;2022-08-14T03:01:19;4.80;;;4.30;;
9496;SDS011;4786;51.270;4.456;2022-08-14T03:03:47;5.27;;;4.20;;
9496;SDS011;4786;51.270;4.456;2022-08-14T03:06:14;5.70;;;4.17;;
9496;SDS011;4786;51.270;4.456;2022-08-14T03:08:41;5.60;;;3.43;;
9496;SDS011;4786;51.270;4.456;2022-08-14T03:11:10;4.33;;;3.90;;
9496;SDS011;4786;51.270;4.456;2022-08-14T03:13:38;4.80;;;4.13;;
9496;SDS011;4786;51.270;4.456;2022-08-14T03:16:06;4.77;;;4.37;;
9496;SDS011;4786;51.270;4.456;2022-08-14T03:18:32;5.45;;;4.30;;
9496;SDS011;4786;51.270;4.456;2022-08-14T03:21:05;4.30;;;4.00;;
9496;SDS011;4786;51.270;4.456;2022-08-14T03:23:35;4.57;;;4.17;;
9496;SDS011;4786;51.270;4.456;2022-08-14T03:26:02;8.07;;;4.20;;
9496;SDS011;4786;51.270;4.456;2022-08-14T03:28:29;5.13;;;4.63;;
9496;SDS011;4786;51.270;4.456;2022-08-14T03:30:57;5.00;;;4.50;;
9496;SDS011;4786;51.270;4.456;2022-08-14T03:33:24;4.90;;;4.60;;
9496;SDS011;4786;51.270;4.456;2022-08-14T03:35:52;5.17;;;4.67;;
9496;SDS011;4786;51.270;4.456;2022-08-14T03:38:18;5.37;;;4.57;;
9496;SDS011;4786;51.270;4.456;2022-08-14T03:40:44;6.53;;;4.80;;
9496;SDS011;4786;51.270;4.456;2022-08-14T03:43:11;5.57;;;5.07;;
9496;SDS011;4786;51.270;4.456;2022-08-14T03:45:38;5.40;;;4.90;;
9496;SDS011;4786;51.270;4.456;2022-08-14T03:48:14;8.97;;;5.00;;
9496;SDS011;4786;51.270;4.456;2022-08-14T03:50:47;5.33;;;4.53;;
9496;SDS011;4786;51.270;4.456;2022-08-14T03:53:18;5.43;;;4.80;;
9496;SDS011;4786;51.270;4.456;2022-08-14T03:55:44;5.60;;;5.10;;
9496;SDS011;4786;51.270;4.456;2022-08-14T03:58:12;6.73;;;4.80;;
9496;SDS011;4786;51.270;4.456;2022-08-14T04:00:39;4.90;;;4.50;;
9496;SDS011;4786;51.270;4.456;2022-08-14T04:03:06;6.10;;;4.93;;
9496;SDS011;4786;51.270;4.456;2022-08-14T04:05:34;5.50;;;4.93;;
9496;SDS011;4786;51.270;4.456;2022-08-14T04:08:02;5.77;;;5.27;;
9496;SDS011;4786;51.270;4.456;2022-08-14T04:10:29;4.83;;;4.43;;
9496;SDS011;4786;51.270;4.456;2022-08-14T04:12:55;7.93;;;4.97;;
9496;SDS011;4786;51.270;4.456;2022-08-14T04:15:24;5.80;;;5.30;;
9496;SDS011;4786;51.270;4.456;2022-08-14T04:17:51;6.07;;;5.13;;
9496;SDS011;4786;51.270;4.456;2022-08-14T04:20:20;5.80;;;5.23;;
9496;SDS011;4786;51.270;4.456;2022-08-14T04:22:47;6.23;;;4.87;;
9496;SDS011;4786;51.270;4.456;2022-08-14T04:25:14;5.83;;;5.23;;
9496;SDS011;4786;51.270;4.456;2022-08-14T04:27:41;5.23;;;4.83;;
9496;SDS011;4786;51.270;4.456;2022-08-14T04:30:07;6.17;;;5.57;;
9496;SDS011;4786;51.270;4.456;2022-08-14T04:32:34;6.07;;;5.20;;
9496;SDS011;4786;51.270;4.456;2022-08-14T04:35:00;5.07;;;4.67;;
9496;SDS011;4786;51.270;4.456;2022-08-14T04:37:26;5.83;;;5.33;;
9496;SDS011;4786;51.270;4.456;2022-08-14T04:40:10;6.40;;;5.80;;
9496;SDS011;4786;51.270;4.456;2022-08-14T04:42:55;5.47;;;4.87;;
9496;SDS011;4786;51.270;4.456;2022-08-14T04:45:39;5.20;;;4.80;;
9496;SDS011;4786;51.270;4.456;2022-08-14T04:48:11;5.40;;;4.90;;
9496;SDS011;4786;51.270;4.456;2022-08-14T04:50:39;5.40;;;4.90;;
9496;SDS011;4786;51.270;4.456;2022-08-14T04:53:10;5.50;;;5.10;;
9496;SDS011;4786;51.270;4.456;2022-08-14T04:55:39;6.53;;;5.17;;
9496;SDS011;4786;51.270;4.456;2022-08-14T04:58:07;6.97;;;5.10;;
9496;SDS011;4786;51.270;4.456;2022-08-14T05:00:33;5.20;;;4.70;;
9496;SDS011;4786;51.270;4.456;2022-08-14T05:02:59;5.60;;;5.03;;
9496;SDS011;4786;51.270;4.456;2022-08-14T05:05:27;5.83;;;5.20;;
9496;SDS011;4786;51.270;4.456;2022-08-14T05:07:54;5.33;;;4.73;;
9496;SDS011;4786;51.270;4.456;2022-08-14T05:10:20;5.80;;;4.83;;
9496;SDS011;4786;51.270;4.456;2022-08-14T05:12:49;5.47;;;4.90;;
9496;SDS011;4786;51.270;4.456;2022-08-14T05:15:16;5.23;;;4.80;;
9496;SDS011;4786;51.270;4.456;2022-08-14T05:17:45;7.60;;;5.43;;
9496;SDS011;4786;51.270;4.456;2022-08-14T05:20:11;5.57;;;5.07;;
9496;SDS011;4786;51.270;4.456;2022-08-14T05:22:37;5.80;;;5.30;;
9496;SDS011;4786;51.270;4.456;2022-08-14T05:25:03;6.00;;;4.97;;
9496;SDS011;4786;51.270;4.456;2022-08-14T05:27:30;5.30;;;4.80;;
9496;SDS011;4786;51.270;4.456;2022-08-14T05:29:56;7.83;;;5.30;;
9496;SDS011;4786;51.270;4.456;2022-08-14T05:32:23;5.97;;;5.47;;
9496;SDS011;4786;51.270;4.456;2022-08-14T05:34:50;4.90;;;4.33;;
9496;SDS011;4786;51.270;4.456;2022-08-14T05:37:16;4.83;;;4.40;;
9496;SDS011;4786;51.270;4.456;2022-08-14T05:39:42;5.13;;;4.73;;
9496;SDS011;4786;51.270;4.456;2022-08-14T05:42:08;7.40;;;5.00;;
9496;SDS011;4786;51.270;4.456;2022-08-14T05:44:34;5.18;;;4.75;;
9496;SDS011;4786;51.270;4.456;2022-08-14T05:46:59;6.18;;;4.60;;
9496;SDS011;4786;51.270;4.456;2022-08-14T05:49:26;4.70;;;4.40;;
9496;SDS011;4786;51.270;4.456;2022-08-14T05:51:52;4.78;;;4.38;;
9496;SDS011;4786;51.270;4.456;2022-08-14T05:54:18;6.50;;;4.82;;
9496;SDS011;4786;51.270;4.456;2022-08-14T05:56:43;4.28;;;3.97;;
9496;SDS011;4786;51.270;4.456;2022-08-14T05:59:10;6.13;;;4.07;;
9496;SDS011;4786;51.270;4.456;2022-08-14T06:01:36;5.38;;;4.05;;
9496;SDS011;4786;51.270;4.456;2022-08-14T06:04:02;5.18;;;4.10;;
9496;SDS011;4786;51.270;4.456;2022-08-14T06:06:28;6.15;;;4.15;;
9496;SDS011;4786;51.270;4.456;2022-08-14T06:08:54;3.95;;;3.65;;
9496;SDS011;4786;51.270;4.456;2022-08-14T06:11:20;5.35;;;3.95;;
9496;SDS011;4786;51.270;4.456;2022-08-14T06:13:46;3.65;;;3.40;;
9496;SDS011;4786;51.270;4.456;2022-08-14T06:16:15;5.85;;;4.00;;
9496;SDS011;4786;51.270;4.456;2022-08-14T06:18:42;3.95;;;3.60;;
9496;SDS011;4786;51.270;4.456;2022-08-14T06:21:09;3.58;;;3.28;;
9496;SDS011;4786;51.270;4.456;2022-08-14T06:23:35;4.90;;;3.55;;
9496;SDS011;4786;51.270;4.456;2022-08-14T06:26:01;3.78;;;3.25;;
9496;SDS011;4786;51.270;4.456;2022-08-14T06:28:27;4.53;;;3.47;;
9496;SDS011;4786;51.270;4.456;2022-08-14T06:30:53;5.97;;;3.55;;
9496;SDS011;4786;51.270;4.456;2022-08-14T06:33:19;3.60;;;3.30;;
9496;SDS011;4786;51.270;4.456;2022-08-14T06:35:46;3.33;;;3.03;;
9496;SDS011;4786;51.270;4.456;2022-08-14T06:38:20;5.63;;;3.22;;
9496;SDS011;4786;51.270;4.456;2022-08-14T06:40:48;4.32;;;3.05;;
9496;SDS011;4786;51.270;4.456;2022-08-14T06:43:15;5.60;;;3.70;;
9496;SDS011;4786;51.270;4.456;2022-08-14T06:45:43;3.33;;;2.80;;
9496;SDS011;4786;51.270;4.456;2022-08-14T06:48:14;3.30;;;3.00;;
9496;SDS011;4786;51.270;4.456;2022-08-14T06:50:50;3.70;;;3.35;;
9496;SDS011;4786;51.270;4.456;2022-08-14T06:53:17;3.75;;;3.30;;
9496;SDS011;4786;51.270;4.456;2022-08-14T06:55:44;5.25;;;3.17;;
9496;SDS011;4786;51.270;4.456;2022-08-14T06:58:11;3.65;;;3.33;;
9496;SDS011;4786;51.270;4.456;2022-08-14T07:00:38;4.30;;;3.30;;
9496;SDS011;4786;51.270;4.456;2022-08-14T07:03:04;3.88;;;3.47;;
9496;SDS011;4786;51.270;4.456;2022-08-14T07:05:48;3.60;;;2.95;;
9496;SDS011;4786;51.270;4.456;2022-08-14T07:08:21;4.35;;;3.20;;
9496;SDS011;4786;51.270;4.456;2022-08-14T07:10:54;3.88;;;2.90;;
9496;SDS011;4786;51.270;4.456;2022-08-14T07:13:22;4.50;;;3.22;;
9496;SDS011;4786;51.270;4.456;2022-08-14T07:15:49;3.17;;;2.85;;
9496;SDS011;4786;51.270;4.456;2022-08-14T07:20:49;3.85;;;3.28;;
9496;SDS011;4786;51.270;4.456;2022-08-14T07:23:17;6.43;;;3.60;;
9496;SDS011;4786;51.270;4.456;2022-08-14T07:25:43;4.03;;;3.33;;
9496;SDS011;4786;51.270;4.456;2022-08-14T07:30:50;4.38;;;3.33;;
9496;SDS011;4786;51.270;4.456;2022-08-14T07:33:20;6.07;;;3.83;;
9496;SDS011;4786;51.270;4.456;2022-08-14T07:35:47;7.25;;;3.33;;
9496;SDS011;4786;51.270;4.456;2022-08-14T07:38:16;3.75;;;3.45;;
9496;SDS011;4786;51.270;4.456;2022-08-14T07:40:44;4.40;;;3.55;;
9496;SDS011;4786;51.270;4.456;2022-08-14T07:43:11;9.00;;;3.83;;
9496;SDS011;4786;51.270;4.456;2022-08-14T07:45:38;3.95;;;3.58;;
9496;SDS011;4786;51.270;4.456;2022-08-14T07:48:05;6.47;;;3.55;;
9496;SDS011;4786;51.270;4.456;2022-08-14T07:50:32;4.97;;;3.53;;
9496;SDS011;4786;51.270;4.456;2022-08-14T07:52:58;6.57;;;3.75;;
9496;SDS011;4786;51.270;4.456;2022-08-14T07:55:25;3.95;;;3.65;;
9496;SDS011;4786;51.270;4.456;2022-08-14T07:57:52;4.43;;;3.70;;
9496;SDS011;4786;51.270;4.456;2022-08-14T08:00:20;6.38;;;3.88;;
9496;SDS011;4786;51.270;4.456;2022-08-14T08:02:48;4.40;;;3.63;;
9496;SDS011;4786;51.270;4.456;2022-08-14T08:05:19;4.35;;;3.95;;
9496;SDS011;4786;51.270;4.456;2022-08-14T08:07:48;4.22;;;3.83;;
9496;SDS011;4786;51.270;4.456;2022-08-14T08:10:16;6.30;;;4.30;;
9496;SDS011;4786;51.270;4.456;2022-08-14T08:12:59;3.90;;;3.60;;
9496;SDS011;4786;51.270;4.456;2022-08-14T08:15:29;4.88;;;3.72;;
9496;SDS011;4786;51.270;4.456;2022-08-14T08:17:57;15.32;;;4.85;;
9496;SDS011;4786;51.270;4.456;2022-08-14T08:20:24;3.80;;;3.60;;
9496;SDS011;4786;51.270;4.456;2022-08-14T08:22:52;6.28;;;4.43;;
9496;SDS011;4786;51.270;4.456;2022-08-14T08:25:20;7.90;;;4.40;;
9496;SDS011;4786;51.270;4.456;2022-08-14T08:28:00;5.85;;;3.90;;
9496;SDS011;4786;51.270;4.456;2022-08-14T08:30:30;4.88;;;4.47;;
9496;SDS011;4786;51.270;4.456;2022-08-14T08:32:58;4.47;;;4.13;;
9496;SDS011;4786;51.270;4.456;2022-08-14T08:35:27;4.53;;;3.97;;
9496;SDS011;4786;51.270;4.456;2022-08-14T08:37:59;4.43;;;4.05;;
9496;SDS011;4786;51.270;4.456;2022-08-14T08:40:31;8.32;;;4.50;;
9496;SDS011;4786;51.270;4.456;2022-08-14T08:43:51;4.55;;;4.10;;
9496;SDS011;4786;51.270;4.456;2022-08-14T08:46:11;5.28;;;4.35;;
9496;SDS011;4786;51.270;4.456;2022-08-14T08:51:20;5.90;;;4.32;;
9496;SDS011;4786;51.270;4.456;2022-08-14T08:59:18;4.60;;;4.20;;
9496;SDS011;4786;51.270;4.456;2022-08-14T09:01:50;4.50;;;4.10;;
9496;SDS011;4786;51.270;4.456;2022-08-14T09:04:27;4.30;;;4.00;;
9496;SDS011;4786;51.270;4.456;2022-08-14T09:06:58;6.78;;;4.13;;
9496;SDS011;4786;51.270;4.456;2022-08-14T09:09:25;4.75;;;4.03;;
9496;SDS011;4786;51.270;4.456;2022-08-14T09:11:56;4.32;;;4.00;;
9496;SDS011;4786;51.270;4.456;2022-08-14T09:14:24;4.50;;;4.10;;
9496;SDS011;4786;51.270;4.456;2022-08-14T09:16:53;4.18;;;3.90;;
9496;SDS011;4786;51.270;4.456;2022-08-14T09:19:24;4.05;;;3.75;;
9496;SDS011;4786;51.270;4.456;2022-08-14T09:21:51;5.90;;;4.15;;
9496;SDS011;4786;51.270;4.456;2022-08-14T09:24:19;5.63;;;4.10;;
9496;SDS011;4786;51.270;4.456;2022-08-14T09:26:45;4.18;;;3.78;;
9496;SDS011;4786;51.270;4.456;2022-08-14T09:29:12;4.55;;;4.15;;
9496;SDS011;4786;51.270;4.456;2022-08-14T09:31:45;4.60;;;4.10;;
9496;SDS011;4786;51.270;4.456;2022-08-14T09:34:17;6.20;;;3.85;;
9496;SDS011;4786;51.270;4.456;2022-08-14T09:37:27;6.18;;;4.47;;
9496;SDS011;4786;51.270;4.456;2022-08-14T09:42:34;4.50;;;4.20;;
9496;SDS011;4786;51.270;4.456;2022-08-14T09:45:08;5.05;;;4.13;;
9496;SDS011;4786;51.270;4.456;2022-08-14T09:52:59;5.47;;;4.13;;
9496;SDS011;4786;51.270;4.456;2022-08-14T09:55:29;5.65;;;3.80;;
9496;SDS011;4786;51.270;4.456;2022-08-14T09:58:10;5.00;;;4.50;;
9496;SDS011;4786;51.270;4.456;2022-08-14T10:00:49;4.80;;;4.35;;
9496;SDS011;4786;51.270;4.456;2022-08-14T10:05:50;4.35;;;4.00;;
9496;SDS011;4786;51.270;4.456;2022-08-14T10:08:27;4.15;;;3.85;;
9496;SDS011;4786;51.270;4.456;2022-08-14T10:11:15;4.50;;;4.20;;
9496;SDS011;4786;51.270;4.456;2022-08-14T10:13:43;6.95;;;3.85;;
9496;SDS011;4786;51.270;4.456;2022-08-14T10:16:11;6.28;;;3.80;;
9496;SDS011;4786;51.270;4.456;2022-08-14T10:18:38;4.68;;;4.07;;
9496;SDS011;4786;51.270;4.456;2022-08-14T10:21:06;5.57;;;3.97;;
9496;SDS011;4786;51.270;4.456;2022-08-14T10:23:41;7.05;;;3.70;;
9496;SDS011;4786;51.270;4.456;2022-08-14T10:26:14;4.45;;;3.58;;
9496;SDS011;4786;51.270;4.456;2022-08-14T10:28:44;3.78;;;3.55;;
9496;SDS011;4786;51.270;4.456;2022-08-14T10:31:16;6.65;;;3.50;;
9496;SDS011;4786;51.270;4.456;2022-08-14T10:36:48;4.40;;;3.22;;
9496;SDS011;4786;51.270;4.456;2022-08-14T10:39:21;3.80;;;3.50;;
9496;SDS011;4786;51.270;4.456;2022-08-14T10:41:51;4.03;;;3.72;;
9496;SDS011;4786;51.270;4.456;2022-08-14T10:44:36;8.40;;;3.67;;
9496;SDS011;4786;51.270;4.456;2022-08-14T10:47:10;3.20;;;3.00;;
9496;SDS011;4786;51.270;4.456;2022-08-14T10:49:37;4.88;;;3.65;;
9496;SDS011;4786;51.270;4.456;2022-08-14T10:52:21;3.58;;;2.90;;
9496;SDS011;4786;51.270;4.456;2022-08-14T10:54:49;4.25;;;3.00;;
9496;SDS011;4786;51.270;4.456;2022-08-14T10:59:58;3.80;;;2.88;;
9496;SDS011;4786;51.270;4.456;2022-08-14T11:02:29;4.22;;;3.17;;
9496;SDS011;4786;51.270;4.456;2022-08-14T11:05:12;3.65;;;3.03;;
9496;SDS011;4786;51.270;4.456;2022-08-14T11:10:22;2.95;;;2.75;;
9496;SDS011;4786;51.270;4.456;2022-08-14T11:12:53;3.72;;;2.45;;
9496;SDS011;4786;51.270;4.456;2022-08-14T11:15:22;2.65;;;2.40;;
9496;SDS011;4786;51.270;4.456;2022-08-14T11:17:50;2.45;;;2.30;;
9496;SDS011;4786;51.270;4.456;2022-08-14T11:20:18;3.85;;;2.47;;
9496;SDS011;4786;51.270;4.456;2022-08-14T11:22:46;3.20;;;2.20;;
9496;SDS011;4786;51.270;4.456;2022-08-14T11:25:17;2.25;;;2.05;;
9496;SDS011;4786;51.270;4.456;2022-08-14T11:27:44;4.97;;;2.58;;
9496;SDS011;4786;51.270;4.456;2022-08-14T11:30:15;3.20;;;2.70;;
9496;SDS011;4786;51.270;4.456;2022-08-14T11:32:47;2.50;;;2.30;;
9496;SDS011;4786;51.270;4.456;2022-08-14T11:35:16;5.03;;;2.50;;
9496;SDS011;4786;51.270;4.456;2022-08-14T11:37:48;3.20;;;2.60;;
9496;SDS011;4786;51.270;4.456;2022-08-14T11:40:18;2.60;;;2.40;;
9496;SDS011;4786;51.270;4.456;2022-08-14T11:42:46;4.00;;;2.45;;
9496;SDS011;4786;51.270;4.456;2022-08-14T11:45:13;4.50;;;2.67;;
9496;SDS011;4786;51.270;4.456;2022-08-14T11:47:42;3.17;;;2.50;;
9496;SDS011;4786;51.270;4.456;2022-08-14T11:50:12;3.15;;;2.42;;
9496;SDS011;4786;51.270;4.456;2022-08-14T11:52:47;3.30;;;2.58;;
9496;SDS011;4786;51.270;4.456;2022-08-14T11:55:14;2.60;;;2.40;;
9496;SDS011;4786;51.270;4.456;2022-08-14T11:57:43;14.48;;;2.70;;
9496;SDS011;4786;51.270;4.456;2022-08-14T12:00:11;3.03;;;2.33;;
9496;SDS011;4786;51.270;4.456;2022-08-14T12:02:54;2.35;;;2.13;;
9496;SDS011;4786;51.270;4.456;2022-08-14T12:05:32;4.43;;;2.30;;
9496;SDS011;4786;51.270;4.456;2022-08-14T12:08:01;4.32;;;2.30;;
9496;SDS011;4786;51.270;4.456;2022-08-14T12:10:31;3.00;;;2.58;;
9496;SDS011;4786;51.270;4.456;2022-08-14T12:13:11;2.80;;;2.38;;
9496;SDS011;4786;51.270;4.456;2022-08-14T12:15:43;2.40;;;2.20;;
9496;SDS011;4786;51.270;4.456;2022-08-14T12:18:11;2.75;;;2.10;;
9496;SDS011;4786;51.270;4.456;2022-08-14T12:20:38;4.57;;;2.30;;
9496;SDS011;4786;51.270;4.456;2022-08-14T12:23:18;2.45;;;2.00;;
9496;SDS011;4786;51.270;4.456;2022-08-14T12:25:46;2.20;;;2.00;;
9496;SDS011;4786;51.270;4.456;2022-08-14T12:28:13;2.65;;;2.22;;
9496;SDS011;4786;51.270;4.456;2022-08-14T12:30:41;2.20;;;2.00;;
9496;SDS011;4786;51.270;4.456;2022-08-14T12:36:06;2.10;;;1.85;;
9496;SDS011;4786;51.270;4.456;2022-08-14T12:38:40;2.90;;;2.10;;
9496;SDS011;4786;51.270;4.456;2022-08-14T12:41:18;1.80;;;1.70;;
9496;SDS011;4786;51.270;4.456;2022-08-14T12:46:19;2.38;;;1.88;;
9496;SDS011;4786;51.270;4.456;2022-08-14T12:48:50;4.03;;;1.90;;
9496;SDS011;4786;51.270;4.456;2022-08-14T12:51:17;2.20;;;2.00;;
9496;SDS011;4786;51.270;4.456;2022-08-14T12:53:44;3.55;;;1.90;;
9496;SDS011;4786;51.270;4.456;2022-08-14T12:56:10;2.55;;;1.92;;
9496;SDS011;4786;51.270;4.456;2022-08-14T12:58:41;1.92;;;1.80;;
9496;SDS011;4786;51.270;4.456;2022-08-14T13:01:18;2.63;;;2.15;;
9496;SDS011;4786;51.270;4.456;2022-08-14T13:03:46;2.10;;;1.90;;
9496;SDS011;4786;51.270;4.456;2022-08-14T13:06:13;2.05;;;1.92;;
9496;SDS011;4786;51.270;4.456;2022-08-14T13:08:39;2.33;;;2.10;;
9496;SDS011;4786;51.270;4.456;2022-08-14T13:11:12;3.65;;;2.10;;
9496;SDS011;4786;51.270;4.456;2022-08-14T13:13:40;7.50;;;2.00;;
9496;SDS011;4786;51.270;4.456;2022-08-14T13:16:08;2.10;;;1.90;;
9496;SDS011;4786;51.270;4.456;2022-08-14T13:18:37;5.63;;;2.35;;
9496;SDS011;4786;51.270;4.456;2022-08-14T13:21:06;4.45;;;2.10;;
9496;SDS011;4786;51.270;4.456;2022-08-14T13:23:34;2.70;;;1.90;;
9496;SDS011;4786;51.270;4.456;2022-08-14T13:26:04;7.20;;;2.25;;
9496;SDS011;4786;51.270;4.456;2022-08-14T13:28:31;4.43;;;2.03;;
9496;SDS011;4786;51.270;4.456;2022-08-14T13:31:02;4.50;;;1.90;;
9496;SDS011;4786;51.270;4.456;2022-08-14T13:33:31;2.40;;;2.20;;
9496;SDS011;4786;51.270;4.456;2022-08-14T13:36:00;2.38;;;2.10;;
9496;SDS011;4786;51.270;4.456;2022-08-14T13:38:27;2.63;;;1.83;;
9496;SDS011;4786;51.270;4.456;2022-08-14T13:40:56;2.38;;;1.90;;
9496;SDS011;4786;51.270;4.456;2022-08-14T13:43:23;2.58;;;2.25;;
9496;SDS011;4786;51.270;4.456;2022-08-14T13:45:52;4.43;;;2.15;;
9496;SDS011;4786;51.270;4.456;2022-08-14T13:48:20;2.47;;;1.90;;
9496;SDS011;4786;51.270;4.456;2022-08-14T13:50:47;3.28;;;1.80;;
9496;SDS011;4786;51.270;4.456;2022-08-14T13:53:21;2.00;;;1.90;;
9496;SDS011;4786;51.270;4.456;2022-08-14T13:55:48;12.68;;;2.35;;
9496;SDS011;4786;51.270;4.456;2022-08-14T13:58:17;2.20;;;2.00;;
9496;SDS011;4786;51.270;4.456;2022-08-14T14:00:45;2.53;;;1.90;;
9496;SDS011;4786;51.270;4.456;2022-08-14T14:03:15;2.30;;;2.10;;
9496;SDS011;4786;51.270;4.456;2022-08-14T14:05:43;2.35;;;1.90;;
9496;SDS011;4786;51.270;4.456;2022-08-14T14:08:09;2.03;;;1.92;;
9496;SDS011;4786;51.270;4.456;2022-08-14T14:10:37;3.78;;;2.08;;
9496;SDS011;4786;51.270;4.456;2022-08-14T14:13:03;3.00;;;2.25;;
9496;SDS011;4786;51.270;4.456;2022-08-14T14:15:30;2.95;;;2.00;;
9496;SDS011;4786;51.270;4.456;2022-08-14T14:17:55;2.03;;;1.92;;
9496;SDS011;4786;51.270;4.456;2022-08-14T14:20:25;2.20;;;2.00;;
9496;SDS011;4786;51.270;4.456;2022-08-14T14:22:50;2.03;;;1.92;;
9496;SDS011;4786;51.270;4.456;2022-08-14T14:25:17;2.00;;;1.88;;
9496;SDS011;4786;51.270;4.456;2022-08-14T14:27:46;2.75;;;1.80;;
9496;SDS011;4786;51.270;4.456;2022-08-14T14:30:14;2.45;;;1.90;;
9496;SDS011;4786;51.270;4.456;2022-08-14T14:32:42;2.15;;;1.95;;
9496;SDS011;4786;51.270;4.456;2022-08-14T14:35:10;2.35;;;1.90;;
9496;SDS011;4786;51.270;4.456;2022-08-14T14:37:39;4.53;;;1.88;;
9496;SDS011;4786;51.270;4.456;2022-08-14T14:40:08;2.40;;;2.20;;
9496;SDS011;4786;51.270;4.456;2022-08-14T14:42:37;3.15;;;2.40;;
9496;SDS011;4786;51.270;4.456;2022-08-14T14:45:11;2.20;;;2.00;;
9496;SDS011;4786;51.270;4.456;2022-08-14T14:47:44;2.10;;;2.00;;
9496;SDS011;4786;51.270;4.456;2022-08-14T14:50:17;4.35;;;2.25;;
9496;SDS011;4786;51.270;4.456;2022-08-14T14:52:45;4.00;;;2.28;;
9496;SDS011;4786;51.270;4.456;2022-08-14T14:55:13;3.05;;;2.08;;
9496;SDS011;4786;51.270;4.456;2022-08-14T14:57:40;2.10;;;2.00;;
9496;SDS011;4786;51.270;4.456;2022-08-14T15:00:08;2.88;;;2.17;;
9496;SDS011;4786;51.270;4.456;2022-08-14T15:02:41;2.20;;;1.98;;
9496;SDS011;4786;51.270;4.456;2022-08-14T15:05:09;2.70;;;2.00;;
9496;SDS011;4786;51.270;4.456;2022-08-14T15:07:36;2.30;;;2.10;;
9496;SDS011;4786;51.270;4.456;2022-08-14T15:10:04;2.38;;;2.10;;
9496;SDS011;4786;51.270;4.456;2022-08-14T15:12:31;2.20;;;2.00;;
9496;SDS011;4786;51.270;4.456;2022-08-14T15:14:57;2.55;;;2.00;;
9496;SDS011;4786;51.270;4.456;2022-08-14T15:17:24;2.00;;;1.90;;
9496;SDS011;4786;51.270;4.456;2022-08-14T15:19:51;1.90;;;1.80;;
9496;SDS011;4786;51.270;4.456;2022-08-14T15:22:18;2.33;;;2.03;;
9496;SDS011;4786;51.270;4.456;2022-08-14T15:24:44;5.13;;;1.90;;
9496;SDS011;4786;51.270;4.456;2022-08-14T15:27:10;2.50;;;2.10;;
9496;SDS011;4786;51.270;4.456;2022-08-14T15:29:37;2.08;;;1.95;;
9496;SDS011;4786;51.270;4.456;2022-08-14T15:32:07;2.42;;;2.10;;
9496;SDS011;4786;51.270;4.456;2022-08-14T15:34:37;2.00;;;1.90;;
9496;SDS011;4786;51.270;4.456;2022-08-14T15:37:04;2.03;;;1.92;;
9496;SDS011;4786;51.270;4.456;2022-08-14T15:39:31;2.10;;;2.00;;
9496;SDS011;4786;51.270;4.456;2022-08-14T15:41:58;2.65;;;2.10;;
9496;SDS011;4786;51.270;4.456;2022-08-14T15:44:27;2.10;;;2.00;;
9496;SDS011;4786;51.270;4.456;2022-08-14T15:46:54;3.55;;;2.13;;
9496;SDS011;4786;51.270;4.456;2022-08-14T15:49:21;5.13;;;1.88;;
9496;SDS011;4786;51.270;4.456;2022-08-14T15:51:48;3.28;;;2.13;;
9496;SDS011;4786;51.270;4.456;2022-08-14T15:54:14;2.10;;;1.90;;
9496;SDS011;4786;51.270;4.456;2022-08-14T15:56:40;4.15;;;2.10;;
9496;SDS011;4786;51.270;4.456;2022-08-14T15:59:07;2.17;;;1.80;;
9496;SDS011;4786;51.270;4.456;2022-08-14T16:01:34;2.38;;;2.28;;
9496;SDS011;4786;51.270;4.456;2022-08-14T16:04:00;2.75;;;2.15;;